sensor_id;sensor_type;location;lat;lon;timestamp;P1;durP1;ratioP1;P2;durP2;ratioP2
10991;SDS011;5549;47.028;15.514;2024-01-11T00:02:29;14.65;;;4.70;;
10991;SDS011;5549;47.028;15.514;2024-01-11T00:04:59;8.85;;;4.15;;
10991;SDS011;5549;47.028;15.514;2024-01-11T00:07:28;10.68;;;4.10;;
10991;SDS011;5549;47.028;15.514;2024-01-11T00:09:56;14.38;;;4.57;;
10991;SDS011;5549;47.028;15.514;2024-01-11T00:12:24;14.43;;;5.30;;
10991;SDS011;5549;47.028;15.514;2024-01-11T00:14:52;11.25;;;4.55;;
10991;SDS011;5549;47.028;15.514;2024-01-11T00:17:22;12.25;;;4.03;;
10991;SDS011;5549;47.028;15.514;2024-01-11T00:19:50;12.88;;;4.93;;
10991;SDS011;5549;47.028;15.514;2024-01-11T00:22:18;13.40;;;4.43;;
10991;SDS011;5549;47.028;15.514;2024-01-11T00:24:46;15.00;;;5.40;;
10991;SDS011;5549;47.028;15.514;2024-01-11T00:27:13;12.90;;;4.43;;
10991;SDS011;5549;47.028;15.514;2024-01-11T00:29:44;10.98;;;3.95;;
10991;SDS011;5549;47.028;15.514;2024-01-11T00:32:11;11.65;;;4.53;;
10991;SDS011;5549;47.028;15.514;2024-01-11T00:34:43;12.95;;;4.55;;
10991;SDS011;5549;47.028;15.514;2024-01-11T00:37:10;13.32;;;5.28;;
10991;SDS011;5549;47.028;15.514;2024-01-11T00:39:40;11.15;;;4.75;;
10991;SDS011;5549;47.028;15.514;2024-01-11T00:42:09;12.00;;;4.45;;
10991;SDS011;5549;47.028;15.514;2024-01-11T00:44:36;11.63;;;4.18;;
10991;SDS011;5549;47.028;15.514;2024-01-11T00:47:07;9.95;;;3.83;;
10991;SDS011;5549;47.028;15.514;2024-01-11T00:49:39;11.27;;;3.83;;
10991;SDS011;5549;47.028;15.514;2024-01-11T00:52:08;9.23;;;3.67;;
10991;SDS011;5549;47.028;15.514;2024-01-11T00:54:38;9.90;;;4.22;;
10991;SDS011;5549;47.028;15.514;2024-01-11T00:57:09;9.32;;;4.03;;
10991;SDS011;5549;47.028;15.514;2024-01-11T00:59:37;10.43;;;3.80;;
10991;SDS011;5549;47.028;15.514;2024-01-11T01:02:06;10.38;;;3.88;;
10991;SDS011;5549;47.028;15.514;2024-01-11T01:04:37;8.77;;;3.45;;
10991;SDS011;5549;47.028;15.514;2024-01-11T01:07:05;9.35;;;3.50;;
10991;SDS011;5549;47.028;15.514;2024-01-11T01:09:34;8.98;;;3.35;;
10991;SDS011;5549;47.028;15.514;2024-01-11T01:12:02;8.90;;;3.28;;
10991;SDS011;5549;47.028;15.514;2024-01-11T01:14:30;11.52;;;3.63;;
10991;SDS011;5549;47.028;15.514;2024-01-11T01:16:59;7.75;;;3.42;;
10991;SDS011;5549;47.028;15.514;2024-01-11T01:19:26;10.93;;;3.38;;
10991;SDS011;5549;47.028;15.514;2024-01-11T01:21:54;10.32;;;3.60;;
10991;SDS011;5549;47.028;15.514;2024-01-11T01:24:23;9.95;;;3.13;;
10991;SDS011;5549;47.028;15.514;2024-01-11T01:26:51;11.27;;;3.47;;
10991;SDS011;5549;47.028;15.514;2024-01-11T01:29:19;10.55;;;3.40;;
10991;SDS011;5549;47.028;15.514;2024-01-11T01:31:46;9.38;;;3.28;;
10991;SDS011;5549;47.028;15.514;2024-01-11T01:34:14;11.68;;;4.68;;
10991;SDS011;5549;47.028;15.514;2024-01-11T01:36:42;9.63;;;3.58;;
10991;SDS011;5549;47.028;15.514;2024-01-11T01:39:09;8.82;;;3.67;;
10991;SDS011;5549;47.028;15.514;2024-01-11T01:41:41;12.40;;;3.38;;
10991;SDS011;5549;47.028;15.514;2024-01-11T01:44:08;11.68;;;3.65;;
10991;SDS011;5549;47.028;15.514;2024-01-11T01:46:36;8.50;;;3.13;;
10991;SDS011;5549;47.028;15.514;2024-01-11T01:49:04;10.15;;;3.83;;
10991;SDS011;5549;47.028;15.514;2024-01-11T01:51:32;10.82;;;4.32;;
10991;SDS011;5549;47.028;15.514;2024-01-11T01:54:00;10.77;;;3.58;;
10991;SDS011;5549;47.028;15.514;2024-01-11T01:56:30;11.40;;;4.40;;
10991;SDS011;5549;47.028;15.514;2024-01-11T01:59:00;12.95;;;3.97;;
10991;SDS011;5549;47.028;15.514;2024-01-11T02:01:29;13.10;;;4.35;;
10991;SDS011;5549;47.028;15.514;2024-01-11T02:03:58;11.80;;;4.28;;
10991;SDS011;5549;47.028;15.514;2024-01-11T02:06:26;14.43;;;4.60;;
10991;SDS011;5549;47.028;15.514;2024-01-11T02:08:57;12.15;;;5.18;;
10991;SDS011;5549;47.028;15.514;2024-01-11T02:11:27;12.40;;;4.53;;
10991;SDS011;5549;47.028;15.514;2024-01-11T02:13:55;8.98;;;3.72;;
10991;SDS011;5549;47.028;15.514;2024-01-11T02:16:25;11.85;;;4.35;;
10991;SDS011;5549;47.028;15.514;2024-01-11T02:18:53;16.45;;;4.35;;
10991;SDS011;5549;47.028;15.514;2024-01-11T02:21:21;11.85;;;4.57;;
10991;SDS011;5549;47.028;15.514;2024-01-11T02:24:01;10.20;;;3.92;;
10991;SDS011;5549;47.028;15.514;2024-01-11T02:29:26;8.80;;;3.95;;
10991;SDS011;5549;47.028;15.514;2024-01-11T02:31:54;14.20;;;4.95;;
10991;SDS011;5549;47.028;15.514;2024-01-11T02:34:23;13.20;;;4.28;;
10991;SDS011;5549;47.028;15.514;2024-01-11T02:36:53;16.75;;;4.57;;
10991;SDS011;5549;47.028;15.514;2024-01-11T02:39:22;13.93;;;5.07;;
10991;SDS011;5549;47.028;15.514;2024-01-11T02:41:52;11.57;;;4.90;;
10991;SDS011;5549;47.028;15.514;2024-01-11T02:44:22;11.82;;;4.53;;
10991;SDS011;5549;47.028;15.514;2024-01-11T02:46:50;13.63;;;4.95;;
10991;SDS011;5549;47.028;15.514;2024-01-11T02:49:17;17.27;;;6.13;;
10991;SDS011;5549;47.028;15.514;2024-01-11T02:51:47;14.13;;;4.38;;
10991;SDS011;5549;47.028;15.514;2024-01-11T02:54:15;13.70;;;5.28;;
10991;SDS011;5549;47.028;15.514;2024-01-11T02:56:44;17.30;;;6.47;;
10991;SDS011;5549;47.028;15.514;2024-01-11T02:59:12;12.98;;;5.00;;
10991;SDS011;5549;47.028;15.514;2024-01-11T03:01:41;11.43;;;4.20;;
10991;SDS011;5549;47.028;15.514;2024-01-11T03:04:08;8.30;;;3.67;;
10991;SDS011;5549;47.028;15.514;2024-01-11T03:06:42;11.43;;;2.58;;
10991;SDS011;5549;47.028;15.514;2024-01-11T03:09:18;16.35;;;4.95;;
10991;SDS011;5549;47.028;15.514;2024-01-11T03:11:48;10.88;;;4.45;;
10991;SDS011;5549;47.028;15.514;2024-01-11T03:18:21;7.82;;;3.75;;
10991;SDS011;5549;47.028;15.514;2024-01-11T03:20:49;11.32;;;4.18;;
10991;SDS011;5549;47.028;15.514;2024-01-11T03:23:17;11.32;;;4.05;;
10991;SDS011;5549;47.028;15.514;2024-01-11T03:25:48;14.07;;;4.00;;
10991;SDS011;5549;47.028;15.514;2024-01-11T03:28:19;12.60;;;5.38;;
10991;SDS011;5549;47.028;15.514;2024-01-11T03:30:46;10.32;;;3.90;;
10991;SDS011;5549;47.028;15.514;2024-01-11T03:33:14;10.55;;;4.47;;
10991;SDS011;5549;47.028;15.514;2024-01-11T03:35:42;13.00;;;4.93;;
10991;SDS011;5549;47.028;15.514;2024-01-11T03:38:10;11.73;;;5.47;;
10991;SDS011;5549;47.028;15.514;2024-01-11T03:40:39;13.77;;;4.20;;
10991;SDS011;5549;47.028;15.514;2024-01-11T03:43:07;12.07;;;5.70;;
10991;SDS011;5549;47.028;15.514;2024-01-11T03:45:36;15.80;;;5.82;;
10991;SDS011;5549;47.028;15.514;2024-01-11T03:48:03;17.50;;;5.00;;
10991;SDS011;5549;47.028;15.514;2024-01-11T03:50:31;12.27;;;4.38;;
10991;SDS011;5549;47.028;15.514;2024-01-11T03:52:59;12.25;;;5.18;;
10991;SDS011;5549;47.028;15.514;2024-01-11T03:55:27;14.07;;;4.72;;
10991;SDS011;5549;47.028;15.514;2024-01-11T03:57:54;14.02;;;5.05;;
10991;SDS011;5549;47.028;15.514;2024-01-11T04:00:22;14.73;;;5.57;;
10991;SDS011;5549;47.028;15.514;2024-01-11T04:02:51;13.57;;;5.57;;
10991;SDS011;5549;47.028;15.514;2024-01-11T04:05:21;15.10;;;5.40;;
10991;SDS011;5549;47.028;15.514;2024-01-11T04:07:48;13.02;;;4.85;;
10991;SDS011;5549;47.028;15.514;2024-01-11T04:10:17;13.68;;;5.40;;
10991;SDS011;5549;47.028;15.514;2024-01-11T04:12:44;16.98;;;5.28;;
10991;SDS011;5549;47.028;15.514;2024-01-11T04:15:12;10.23;;;5.28;;
10991;SDS011;5549;47.028;15.514;2024-01-11T04:17:40;11.25;;;4.50;;
10991;SDS011;5549;47.028;15.514;2024-01-11T04:20:09;12.77;;;5.82;;
10991;SDS011;5549;47.028;15.514;2024-01-11T04:22:37;16.85;;;5.55;;
10991;SDS011;5549;47.028;15.514;2024-01-11T04:25:05;13.00;;;5.10;;
10991;SDS011;5549;47.028;15.514;2024-01-11T04:27:36;17.40;;;6.25;;
10991;SDS011;5549;47.028;15.514;2024-01-11T04:30:04;15.18;;;5.03;;
10991;SDS011;5549;47.028;15.514;2024-01-11T04:32:34;15.90;;;5.10;;
10991;SDS011;5549;47.028;15.514;2024-01-11T04:35:02;12.70;;;5.45;;
10991;SDS011;5549;47.028;15.514;2024-01-11T04:37:31;15.13;;;5.60;;
10991;SDS011;5549;47.028;15.514;2024-01-11T04:40:00;10.45;;;4.93;;
10991;SDS011;5549;47.028;15.514;2024-01-11T04:42:30;12.98;;;4.85;;
10991;SDS011;5549;47.028;15.514;2024-01-11T04:44:58;13.48;;;4.32;;
10991;SDS011;5549;47.028;15.514;2024-01-11T04:47:26;18.30;;;6.20;;
10991;SDS011;5549;47.028;15.514;2024-01-11T04:49:53;12.18;;;5.05;;
10991;SDS011;5549;47.028;15.514;2024-01-11T04:52:21;10.75;;;4.30;;
10991;SDS011;5549;47.028;15.514;2024-01-11T04:54:52;11.68;;;5.07;;
10991;SDS011;5549;47.028;15.514;2024-01-11T04:57:20;18.15;;;4.28;;
10991;SDS011;5549;47.028;15.514;2024-01-11T04:59:47;12.48;;;5.45;;
10991;SDS011;5549;47.028;15.514;2024-01-11T05:02:15;10.60;;;4.10;;
10991;SDS011;5549;47.028;15.514;2024-01-11T05:04:42;13.13;;;5.03;;
10991;SDS011;5549;47.028;15.514;2024-01-11T05:07:10;10.38;;;4.30;;
10991;SDS011;5549;47.028;15.514;2024-01-11T05:09:40;10.85;;;4.05;;
10991;SDS011;5549;47.028;15.514;2024-01-11T05:12:09;13.45;;;4.55;;
10991;SDS011;5549;47.028;15.514;2024-01-11T05:14:37;14.50;;;5.43;;
10991;SDS011;5549;47.028;15.514;2024-01-11T05:17:05;10.00;;;5.55;;
10991;SDS011;5549;47.028;15.514;2024-01-11T05:19:33;14.23;;;5.95;;
10991;SDS011;5549;47.028;15.514;2024-01-11T05:22:00;10.52;;;4.50;;
10991;SDS011;5549;47.028;15.514;2024-01-11T05:24:30;12.80;;;4.32;;
10991;SDS011;5549;47.028;15.514;2024-01-11T05:26:57;18.95;;;5.22;;
10991;SDS011;5549;47.028;15.514;2024-01-11T05:29:26;18.05;;;5.63;;
10991;SDS011;5549;47.028;15.514;2024-01-11T05:31:53;17.55;;;6.43;;
10991;SDS011;5549;47.028;15.514;2024-01-11T05:34:21;12.90;;;4.75;;
10991;SDS011;5549;47.028;15.514;2024-01-11T05:36:51;12.32;;;4.38;;
10991;SDS011;5549;47.028;15.514;2024-01-11T05:39:18;11.55;;;4.65;;
10991;SDS011;5549;47.028;15.514;2024-01-11T05:41:46;12.05;;;4.72;;
10991;SDS011;5549;47.028;15.514;2024-01-11T05:44:13;15.07;;;4.65;;
10991;SDS011;5549;47.028;15.514;2024-01-11T05:46:42;15.45;;;4.63;;
10991;SDS011;5549;47.028;15.514;2024-01-11T05:49:10;15.02;;;5.03;;
10991;SDS011;5549;47.028;15.514;2024-01-11T05:51:37;15.25;;;5.43;;
10991;SDS011;5549;47.028;15.514;2024-01-11T05:54:06;12.93;;;5.38;;
10991;SDS011;5549;47.028;15.514;2024-01-11T05:56:35;11.88;;;5.07;;
10991;SDS011;5549;47.028;15.514;2024-01-11T05:59:03;14.65;;;5.22;;
10991;SDS011;5549;47.028;15.514;2024-01-11T06:01:33;15.63;;;5.30;;
10991;SDS011;5549;47.028;15.514;2024-01-11T06:04:08;10.10;;;4.60;;
10991;SDS011;5549;47.028;15.514;2024-01-11T06:06:35;10.32;;;4.13;;
10991;SDS011;5549;47.028;15.514;2024-01-11T06:09:03;9.05;;;4.05;;
10991;SDS011;5549;47.028;15.514;2024-01-11T06:11:30;16.48;;;5.13;;
10991;SDS011;5549;47.028;15.514;2024-01-11T06:13:58;11.85;;;5.28;;
10991;SDS011;5549;47.028;15.514;2024-01-11T06:16:26;14.77;;;5.10;;
10991;SDS011;5549;47.028;15.514;2024-01-11T06:18:54;12.23;;;4.88;;
10991;SDS011;5549;47.028;15.514;2024-01-11T06:21:25;12.93;;;4.15;;
10991;SDS011;5549;47.028;15.514;2024-01-11T06:23:53;17.08;;;5.00;;
10991;SDS011;5549;47.028;15.514;2024-01-11T06:26:20;12.75;;;4.85;;
10991;SDS011;5549;47.028;15.514;2024-01-11T06:28:48;12.93;;;4.63;;
10991;SDS011;5549;47.028;15.514;2024-01-11T06:31:16;13.18;;;4.45;;
10991;SDS011;5549;47.028;15.514;2024-01-11T06:33:43;13.75;;;5.47;;
10991;SDS011;5549;47.028;15.514;2024-01-11T06:36:11;16.02;;;5.20;;
10991;SDS011;5549;47.028;15.514;2024-01-11T06:38:40;11.57;;;5.40;;
10991;SDS011;5549;47.028;15.514;2024-01-11T06:41:08;12.95;;;4.90;;
10991;SDS011;5549;47.028;15.514;2024-01-11T06:43:36;12.20;;;4.55;;
10991;SDS011;5549;47.028;15.514;2024-01-11T06:46:03;11.05;;;4.32;;
10991;SDS011;5549;47.028;15.514;2024-01-11T06:48:31;11.57;;;4.32;;
10991;SDS011;5549;47.028;15.514;2024-01-11T06:50:59;11.38;;;5.13;;
10991;SDS011;5549;47.028;15.514;2024-01-11T06:53:26;11.27;;;4.55;;
10991;SDS011;5549;47.028;15.514;2024-01-11T06:55:55;13.68;;;5.80;;
10991;SDS011;5549;47.028;15.514;2024-01-11T06:58:25;9.82;;;3.33;;
10991;SDS011;5549;47.028;15.514;2024-01-11T07:00:52;16.63;;;4.85;;
10991;SDS011;5549;47.028;15.514;2024-01-11T07:03:22;11.77;;;4.70;;
10991;SDS011;5549;47.028;15.514;2024-01-11T07:05:50;9.82;;;4.32;;
10991;SDS011;5549;47.028;15.514;2024-01-11T07:08:18;14.25;;;5.38;;
10991;SDS011;5549;47.028;15.514;2024-01-11T07:10:46;14.57;;;5.40;;
10991;SDS011;5549;47.028;15.514;2024-01-11T07:13:15;16.80;;;6.70;;
10991;SDS011;5549;47.028;15.514;2024-01-11T07:15:44;11.80;;;5.65;;
10991;SDS011;5549;47.028;15.514;2024-01-11T07:18:12;19.65;;;7.00;;
10991;SDS011;5549;47.028;15.514;2024-01-11T07:20:40;14.68;;;5.93;;
10991;SDS011;5549;47.028;15.514;2024-01-11T07:23:08;17.17;;;6.38;;
10991;SDS011;5549;47.028;15.514;2024-01-11T07:25:35;13.52;;;5.45;;
10991;SDS011;5549;47.028;15.514;2024-01-11T07:28:06;14.45;;;6.53;;
10991;SDS011;5549;47.028;15.514;2024-01-11T07:30:35;13.60;;;5.20;;
10991;SDS011;5549;47.028;15.514;2024-01-11T07:33:03;12.85;;;5.75;;
10991;SDS011;5549;47.028;15.514;2024-01-11T07:35:31;17.45;;;5.82;;
10991;SDS011;5549;47.028;15.514;2024-01-11T07:37:58;17.65;;;6.38;;
10991;SDS011;5549;47.028;15.514;2024-01-11T07:40:26;16.70;;;6.20;;
10991;SDS011;5549;47.028;15.514;2024-01-11T07:42:54;12.25;;;5.88;;
10991;SDS011;5549;47.028;15.514;2024-01-11T07:45:21;14.00;;;5.75;;
10991;SDS011;5549;47.028;15.514;2024-01-11T07:47:50;13.32;;;5.72;;
10991;SDS011;5549;47.028;15.514;2024-01-11T07:50:18;15.18;;;6.13;;
10991;SDS011;5549;47.028;15.514;2024-01-11T07:52:45;16.58;;;6.20;;
10991;SDS011;5549;47.028;15.514;2024-01-11T07:55:13;14.05;;;4.75;;
10991;SDS011;5549;47.028;15.514;2024-01-11T07:57:40;17.92;;;6.35;;
10991;SDS011;5549;47.028;15.514;2024-01-11T08:00:08;14.30;;;6.10;;
10991;SDS011;5549;47.028;15.514;2024-01-11T08:02:36;15.88;;;6.88;;
10991;SDS011;5549;47.028;15.514;2024-01-11T08:05:06;12.85;;;4.97;;
10991;SDS011;5549;47.028;15.514;2024-01-11T08:07:35;14.50;;;6.13;;
10991;SDS011;5549;47.028;15.514;2024-01-11T08:10:05;17.35;;;3.85;;
10991;SDS011;5549;47.028;15.514;2024-01-11T08:12:34;9.80;;;3.83;;
10991;SDS011;5549;47.028;15.514;2024-01-11T08:15:02;15.35;;;5.95;;
10991;SDS011;5549;47.028;15.514;2024-01-11T08:17:30;11.55;;;4.03;;
10991;SDS011;5549;47.028;15.514;2024-01-11T08:19:58;14.65;;;6.20;;
10991;SDS011;5549;47.028;15.514;2024-01-11T08:22:27;13.07;;;5.45;;
10991;SDS011;5549;47.028;15.514;2024-01-11T08:24:59;13.63;;;5.95;;
10991;SDS011;5549;47.028;15.514;2024-01-11T08:27:27;17.98;;;6.40;;
10991;SDS011;5549;47.028;15.514;2024-01-11T08:29:55;14.73;;;5.80;;
10991;SDS011;5549;47.028;15.514;2024-01-11T08:32:22;15.40;;;5.88;;
10991;SDS011;5549;47.028;15.514;2024-01-11T08:34:50;12.00;;;5.40;;
10991;SDS011;5549;47.028;15.514;2024-01-11T08:37:17;13.15;;;5.18;;
10991;SDS011;5549;47.028;15.514;2024-01-11T08:39:46;13.00;;;5.50;;
10991;SDS011;5549;47.028;15.514;2024-01-11T08:42:14;12.13;;;5.68;;
10991;SDS011;5549;47.028;15.514;2024-01-11T08:44:42;13.35;;;5.32;;
10991;SDS011;5549;47.028;15.514;2024-01-11T08:47:10;12.52;;;5.10;;
10991;SDS011;5549;47.028;15.514;2024-01-11T08:49:38;15.48;;;6.30;;
10991;SDS011;5549;47.028;15.514;2024-01-11T08:52:06;13.68;;;5.25;;
10991;SDS011;5549;47.028;15.514;2024-01-11T08:54:34;9.70;;;4.40;;
10991;SDS011;5549;47.028;15.514;2024-01-11T08:57:03;14.82;;;5.32;;
10991;SDS011;5549;47.028;15.514;2024-01-11T08:59:31;11.43;;;4.30;;
10991;SDS011;5549;47.028;15.514;2024-01-11T09:01:58;11.60;;;4.90;;
10991;SDS011;5549;47.028;15.514;2024-01-11T09:04:26;13.85;;;5.50;;
10991;SDS011;5549;47.028;15.514;2024-01-11T09:06:55;13.23;;;5.78;;
10991;SDS011;5549;47.028;15.514;2024-01-11T09:09:22;15.32;;;6.35;;
10991;SDS011;5549;47.028;15.514;2024-01-11T09:11:50;13.52;;;5.85;;
10991;SDS011;5549;47.028;15.514;2024-01-11T09:14:19;13.02;;;5.18;;
10991;SDS011;5549;47.028;15.514;2024-01-11T09:16:46;15.15;;;5.88;;
10991;SDS011;5549;47.028;15.514;2024-01-11T09:19:15;12.80;;;5.25;;
10991;SDS011;5549;47.028;15.514;2024-01-11T09:21:43;11.68;;;5.45;;
10991;SDS011;5549;47.028;15.514;2024-01-11T09:24:10;13.43;;;5.78;;
10991;SDS011;5549;47.028;15.514;2024-01-11T09:26:38;13.27;;;5.53;;
10991;SDS011;5549;47.028;15.514;2024-01-11T09:29:05;11.95;;;5.85;;
10991;SDS011;5549;47.028;15.514;2024-01-11T09:31:34;16.38;;;6.70;;
10991;SDS011;5549;47.028;15.514;2024-01-11T09:34:02;14.63;;;5.70;;
10991;SDS011;5549;47.028;15.514;2024-01-11T09:36:29;15.45;;;5.97;;
10991;SDS011;5549;47.028;15.514;2024-01-11T09:38:57;13.45;;;5.85;;
10991;SDS011;5549;47.028;15.514;2024-01-11T09:41:25;11.15;;;4.57;;
10991;SDS011;5549;47.028;15.514;2024-01-11T09:43:54;13.20;;;5.07;;
10991;SDS011;5549;47.028;15.514;2024-01-11T09:46:23;13.13;;;5.35;;
10991;SDS011;5549;47.028;15.514;2024-01-11T09:48:53;16.02;;;4.45;;
10991;SDS011;5549;47.028;15.514;2024-01-11T09:51:23;9.57;;;4.72;;
10991;SDS011;5549;47.028;15.514;2024-01-11T09:53:52;8.55;;;3.63;;
10991;SDS011;5549;47.028;15.514;2024-01-11T09:56:22;10.23;;;4.35;;
10991;SDS011;5549;47.028;15.514;2024-01-11T09:58:50;10.40;;;3.80;;
10991;SDS011;5549;47.028;15.514;2024-01-11T10:01:25;10.30;;;4.45;;
10991;SDS011;5549;47.028;15.514;2024-01-11T10:03:54;10.15;;;3.83;;
10991;SDS011;5549;47.028;15.514;2024-01-11T10:06:22;9.73;;;4.55;;
10991;SDS011;5549;47.028;15.514;2024-01-11T10:08:52;10.77;;;5.38;;
10991;SDS011;5549;47.028;15.514;2024-01-11T10:11:20;11.73;;;5.00;;
10991;SDS011;5549;47.028;15.514;2024-01-11T10:13:47;10.93;;;4.93;;
10991;SDS011;5549;47.028;15.514;2024-01-11T10:16:15;11.07;;;4.75;;
10991;SDS011;5549;47.028;15.514;2024-01-11T10:18:45;8.60;;;4.82;;
10991;SDS011;5549;47.028;15.514;2024-01-11T10:21:14;10.00;;;4.35;;
10991;SDS011;5549;47.028;15.514;2024-01-11T10:23:41;9.25;;;4.00;;
10991;SDS011;5549;47.028;15.514;2024-01-11T10:26:09;9.40;;;4.05;;
10991;SDS011;5549;47.028;15.514;2024-01-11T10:28:36;10.80;;;4.22;;
10991;SDS011;5549;47.028;15.514;2024-01-11T10:31:06;9.43;;;4.18;;
10991;SDS011;5549;47.028;15.514;2024-01-11T10:33:33;8.73;;;4.18;;
10991;SDS011;5549;47.028;15.514;2024-01-11T10:36:03;10.68;;;4.30;;
10991;SDS011;5549;47.028;15.514;2024-01-11T10:38:35;10.23;;;3.97;;
10991;SDS011;5549;47.028;15.514;2024-01-11T10:41:06;9.02;;;3.92;;
10991;SDS011;5549;47.028;15.514;2024-01-11T10:43:35;10.25;;;4.03;;
10991;SDS011;5549;47.028;15.514;2024-01-11T10:46:04;9.63;;;4.05;;
10991;SDS011;5549;47.028;15.514;2024-01-11T10:48:33;9.10;;;4.10;;
10991;SDS011;5549;47.028;15.514;2024-01-11T10:51:06;10.90;;;4.82;;
10991;SDS011;5549;47.028;15.514;2024-01-11T10:53:41;9.73;;;4.60;;
10991;SDS011;5549;47.028;15.514;2024-01-11T10:56:11;14.23;;;4.72;;
10991;SDS011;5549;47.028;15.514;2024-01-11T10:58:39;11.95;;;3.85;;
10991;SDS011;5549;47.028;15.514;2024-01-11T11:01:08;10.55;;;4.80;;
10991;SDS011;5549;47.028;15.514;2024-01-11T11:03:38;9.80;;;5.10;;
10991;SDS011;5549;47.028;15.514;2024-01-11T11:06:08;8.60;;;4.68;;
10991;SDS011;5549;47.028;15.514;2024-01-11T11:08:37;11.45;;;4.80;;
10991;SDS011;5549;47.028;15.514;2024-01-11T11:11:07;9.98;;;4.40;;
10991;SDS011;5549;47.028;15.514;2024-01-11T11:13:35;11.63;;;4.60;;
10991;SDS011;5549;47.028;15.514;2024-01-11T11:16:04;7.93;;;3.78;;
10991;SDS011;5549;47.028;15.514;2024-01-11T11:18:34;8.68;;;4.85;;
10991;SDS011;5549;47.028;15.514;2024-01-11T11:21:06;9.18;;;3.28;;
10991;SDS011;5549;47.028;15.514;2024-01-11T11:23:36;7.93;;;4.38;;
10991;SDS011;5549;47.028;15.514;2024-01-11T11:26:06;9.23;;;3.70;;
10991;SDS011;5549;47.028;15.514;2024-01-11T11:28:40;9.82;;;4.30;;
10991;SDS011;5549;47.028;15.514;2024-01-11T11:31:08;9.32;;;4.47;;
10991;SDS011;5549;47.028;15.514;2024-01-11T11:33:38;7.90;;;3.67;;
10991;SDS011;5549;47.028;15.514;2024-01-11T11:36:07;8.85;;;4.47;;
10991;SDS011;5549;47.028;15.514;2024-01-11T11:38:40;10.18;;;4.45;;
10991;SDS011;5549;47.028;15.514;2024-01-11T11:41:09;9.02;;;4.40;;
10991;SDS011;5549;47.028;15.514;2024-01-11T11:43:38;9.73;;;4.80;;
10991;SDS011;5549;47.028;15.514;2024-01-11T11:46:09;9.40;;;4.40;;
10991;SDS011;5549;47.028;15.514;2024-01-11T11:48:49;11.52;;;4.63;;
10991;SDS011;5549;47.028;15.514;2024-01-11T11:51:17;9.70;;;4.35;;
10991;SDS011;5549;47.028;15.514;2024-01-11T11:53:46;10.98;;;4.70;;
10991;SDS011;5549;47.028;15.514;2024-01-11T11:56:17;11.15;;;4.40;;
10991;SDS011;5549;47.028;15.514;2024-01-11T11:58:47;9.77;;;4.70;;
10991;SDS011;5549;47.028;15.514;2024-01-11T12:01:17;11.35;;;4.25;;
10991;SDS011;5549;47.028;15.514;2024-01-11T12:03:47;9.70;;;4.47;;
10991;SDS011;5549;47.028;15.514;2024-01-11T12:06:16;9.23;;;4.47;;
10991;SDS011;5549;47.028;15.514;2024-01-11T12:08:45;10.85;;;4.10;;
10991;SDS011;5549;47.028;15.514;2024-01-11T12:11:14;7.75;;;3.75;;
10991;SDS011;5549;47.028;15.514;2024-01-11T12:13:46;9.52;;;4.18;;
10991;SDS011;5549;47.028;15.514;2024-01-11T12:16:14;11.10;;;4.53;;
10991;SDS011;5549;47.028;15.514;2024-01-11T12:18:42;9.95;;;4.53;;
10991;SDS011;5549;47.028;15.514;2024-01-11T12:41:13;7.05;;;3.72;;
10991;SDS011;5549;47.028;15.514;2024-01-11T12:43:41;9.02;;;3.85;;
10991;SDS011;5549;47.028;15.514;2024-01-11T12:46:09;7.57;;;3.83;;
10991;SDS011;5549;47.028;15.514;2024-01-11T12:48:36;8.65;;;4.32;;
10991;SDS011;5549;47.028;15.514;2024-01-11T12:51:04;8.05;;;3.83;;
10991;SDS011;5549;47.028;15.514;2024-01-11T12:53:32;7.15;;;3.80;;
10991;SDS011;5549;47.028;15.514;2024-01-11T12:56:02;7.55;;;3.55;;
10991;SDS011;5549;47.028;15.514;2024-01-11T12:58:35;9.63;;;3.38;;
10991;SDS011;5549;47.028;15.514;2024-01-11T13:01:03;8.15;;;3.15;;
10991;SDS011;5549;47.028;15.514;2024-01-11T13:03:33;6.47;;;3.08;;
10991;SDS011;5549;47.028;15.514;2024-01-11T13:06:01;7.57;;;3.75;;
10991;SDS011;5549;47.028;15.514;2024-01-11T13:08:30;9.52;;;3.75;;
10991;SDS011;5549;47.028;15.514;2024-01-11T13:11:00;8.05;;;3.72;;
10991;SDS011;5549;47.028;15.514;2024-01-11T13:13:32;7.53;;;3.17;;
10991;SDS011;5549;47.028;15.514;2024-01-11T13:16:02;11.25;;;3.88;;
10991;SDS011;5549;47.028;15.514;2024-01-11T13:18:32;9.63;;;3.97;;
10991;SDS011;5549;47.028;15.514;2024-01-11T13:20:59;8.95;;;3.90;;
10991;SDS011;5549;47.028;15.514;2024-01-11T13:23:28;8.20;;;3.53;;
10991;SDS011;5549;47.028;15.514;2024-01-11T13:25:58;10.52;;;4.53;;
10991;SDS011;5549;47.028;15.514;2024-01-11T13:28:27;11.00;;;4.20;;
10991;SDS011;5549;47.028;15.514;2024-01-11T13:30:58;10.43;;;3.85;;
10991;SDS011;5549;47.028;15.514;2024-01-11T13:33:27;11.07;;;4.05;;
10991;SDS011;5549;47.028;15.514;2024-01-11T13:35:55;8.85;;;3.75;;
10991;SDS011;5549;47.028;15.514;2024-01-11T13:38:23;9.18;;;3.50;;
10991;SDS011;5549;47.028;15.514;2024-01-11T13:40:50;8.80;;;3.75;;
10991;SDS011;5549;47.028;15.514;2024-01-11T13:43:18;11.35;;;4.00;;
10991;SDS011;5549;47.028;15.514;2024-01-11T13:45:45;8.75;;;3.30;;
10991;SDS011;5549;47.028;15.514;2024-01-11T13:48:14;9.25;;;3.72;;
10991;SDS011;5549;47.028;15.514;2024-01-11T13:50:42;7.95;;;4.07;;
10991;SDS011;5549;47.028;15.514;2024-01-11T13:53:10;9.38;;;3.40;;
10991;SDS011;5549;47.028;15.514;2024-01-11T13:55:37;7.15;;;3.38;;
10991;SDS011;5549;47.028;15.514;2024-01-11T13:58:05;7.90;;;3.50;;
10991;SDS011;5549;47.028;15.514;2024-01-11T14:00:35;7.43;;;2.75;;
10991;SDS011;5549;47.028;15.514;2024-01-11T14:03:02;8.90;;;4.00;;
10991;SDS011;5549;47.028;15.514;2024-01-11T14:05:34;9.10;;;3.65;;
10991;SDS011;5549;47.028;15.514;2024-01-11T14:08:03;7.95;;;3.42;;
10991;SDS011;5549;47.028;15.514;2024-01-11T14:10:32;8.43;;;4.03;;
10991;SDS011;5549;47.028;15.514;2024-01-11T14:13:03;7.80;;;3.20;;
10991;SDS011;5549;47.028;15.514;2024-01-11T14:15:30;6.53;;;3.10;;
10991;SDS011;5549;47.028;15.514;2024-01-11T14:17:58;7.00;;;3.33;;
10991;SDS011;5549;47.028;15.514;2024-01-11T14:20:26;7.45;;;3.47;;
10991;SDS011;5549;47.028;15.514;2024-01-11T14:22:55;10.50;;;3.85;;
10991;SDS011;5549;47.028;15.514;2024-01-11T14:25:23;6.88;;;3.42;;
10991;SDS011;5549;47.028;15.514;2024-01-11T14:27:51;8.63;;;3.70;;
10991;SDS011;5549;47.028;15.514;2024-01-11T14:30:19;9.75;;;3.80;;
10991;SDS011;5549;47.028;15.514;2024-01-11T14:32:47;8.80;;;3.55;;
10991;SDS011;5549;47.028;15.514;2024-01-11T14:35:15;9.30;;;3.63;;
10991;SDS011;5549;47.028;15.514;2024-01-11T14:37:43;8.45;;;3.50;;
10991;SDS011;5549;47.028;15.514;2024-01-11T14:40:12;7.80;;;3.47;;
10991;SDS011;5549;47.028;15.514;2024-01-11T14:42:40;8.93;;;3.53;;
10991;SDS011;5549;47.028;15.514;2024-01-11T14:45:08;7.07;;;3.30;;
10991;SDS011;5549;47.028;15.514;2024-01-11T14:47:35;7.15;;;3.42;;
10991;SDS011;5549;47.028;15.514;2024-01-11T14:50:03;7.43;;;3.38;;
10991;SDS011;5549;47.028;15.514;2024-01-11T14:52:35;10.93;;;3.60;;
10991;SDS011;5549;47.028;15.514;2024-01-11T14:55:04;7.85;;;3.45;;
10991;SDS011;5549;47.028;15.514;2024-01-11T14:57:36;7.65;;;3.42;;
10991;SDS011;5549;47.028;15.514;2024-01-11T15:00:06;10.55;;;3.20;;
10991;SDS011;5549;47.028;15.514;2024-01-11T15:02:38;8.50;;;3.30;;
10991;SDS011;5549;47.028;15.514;2024-01-11T15:05:06;8.55;;;3.25;;
10991;SDS011;5549;47.028;15.514;2024-01-11T15:07:35;10.02;;;3.47;;
10991;SDS011;5549;47.028;15.514;2024-01-11T15:10:03;8.50;;;3.67;;
10991;SDS011;5549;47.028;15.514;2024-01-11T15:12:31;7.38;;;3.50;;
10991;SDS011;5549;47.028;15.514;2024-01-11T15:15:00;7.47;;;3.58;;